createdAt,value
2019-03-01T00:01:26.948Z,6.48
2019-03-01T00:04:04.152Z,6.37
2019-03-01T00:06:36.829Z,6.28
2019-03-01T00:09:49.069Z,6.21
2019-03-01T00:13:09.256Z,6.18
2019-03-01T00:16:01.373Z,6.13
2019-03-01T00:18:40.322Z,6.01
2019-03-01T00:21:41.564Z,6.21
2019-03-01T00:24:19.392Z,6.03
2019-03-01T00:27:24.755Z,6.09
2019-03-01T00:30:41.611Z,6.16
2019-03-01T00:33:30.600Z,6.13
2019-03-01T00:36:39.598Z,6.00
2019-03-01T00:39:40.562Z,6.24
2019-03-01T00:42:42.708Z,6.27
2019-03-01T00:45:10.132Z,6.18
2019-03-01T00:47:37.597Z,6.35
2019-03-01T00:50:05.642Z,6.40
2019-03-01T00:52:33.101Z,6.29
2019-03-01T00:55:00.989Z,6.36
2019-03-01T00:57:28.503Z,6.53
2019-03-01T00:59:55.960Z,6.49
2019-03-01T01:02:23.410Z,6.60
2019-03-01T01:04:50.861Z,6.58
2019-03-01T01:07:18.257Z,6.55
2019-03-01T01:09:45.722Z,6.38
2019-03-01T01:12:13.155Z,6.12
2019-03-01T01:14:40.624Z,5.94
2019-03-01T01:17:08.081Z,5.65
2019-03-01T01:19:35.561Z,5.46
2019-03-01T01:22:02.993Z,5.56
2019-03-01T01:24:30.385Z,5.47
2019-03-01T01:26:58.055Z,5.27
2019-03-01T01:29:25.460Z,5.13
2019-03-01T01:31:52.911Z,5.10
2019-03-01T01:34:20.288Z,5.23
2019-03-01T01:36:47.719Z,5.24
2019-03-01T01:39:15.189Z,5.32
2019-03-01T01:41:42.631Z,5.30
2019-03-01T01:44:10.094Z,5.37
2019-03-01T01:46:37.496Z,5.45
2019-03-01T01:49:04.999Z,5.33
2019-03-01T01:51:32.462Z,5.24
2019-03-01T01:53:59.957Z,5.15
2019-03-01T01:56:27.546Z,5.18
2019-03-01T01:58:55.098Z,5.14
2019-03-01T02:01:22.747Z,5.20
2019-03-01T02:03:50.186Z,5.19
2019-03-01T02:06:17.600Z,5.16
2019-03-01T02:08:45.097Z,5.27
2019-03-01T02:11:12.542Z,4.95
2019-03-01T02:13:39.957Z,5.02
2019-03-01T02:16:07.434Z,5.00
2019-03-01T02:18:34.847Z,5.33
2019-03-01T02:21:02.213Z,5.36
2019-03-01T02:23:29.632Z,5.44
2019-03-01T02:25:57.055Z,5.54
2019-03-01T02:28:24.439Z,5.75
2019-03-01T02:30:52.530Z,5.91
2019-03-01T02:33:19.989Z,6.12
2019-03-01T02:35:47.373Z,6.15
2019-03-01T02:38:14.870Z,6.21
2019-03-01T02:40:42.397Z,6.25
2019-03-01T02:43:09.839Z,6.32
2019-03-01T02:45:37.252Z,6.28
2019-03-01T02:48:04.622Z,6.33
2019-03-01T02:50:32.121Z,6.31
2019-03-01T02:52:59.578Z,6.32
2019-03-01T02:55:27.108Z,6.15
2019-03-01T02:57:54.533Z,5.56
2019-03-01T03:00:23.917Z,5.08
2019-03-01T03:02:51.335Z,4.76
2019-03-01T03:05:18.885Z,4.63
2019-03-01T03:07:50.835Z,4.63
2019-03-01T03:10:18.483Z,4.71
2019-03-01T03:12:46.352Z,4.58
2019-03-01T03:15:14.815Z,4.77
2019-03-01T03:17:42.360Z,4.79
2019-03-01T03:20:09.985Z,4.85
2019-03-01T03:22:37.350Z,4.88
2019-03-01T03:25:05.669Z,4.69
2019-03-01T03:27:33.099Z,4.81
2019-03-01T03:30:00.674Z,4.60
2019-03-01T03:32:28.357Z,4.55
2019-03-01T03:34:55.728Z,4.90
2019-03-01T03:37:23.194Z,4.81
2019-03-01T03:39:50.643Z,4.63
2019-03-01T03:42:18.155Z,4.71
2019-03-01T03:44:45.610Z,4.84
2019-03-01T03:47:13.069Z,4.89
2019-03-01T03:49:40.470Z,5.02
2019-03-01T03:52:07.854Z,5.12
2019-03-01T03:54:35.317Z,5.17
2019-03-01T03:57:03.240Z,5.11
2019-03-01T03:59:30.933Z,4.84
2019-03-01T04:01:58.588Z,4.76
2019-03-01T04:04:26.103Z,4.59
2019-03-01T04:06:53.599Z,4.55
2019-03-01T04:09:21.024Z,4.49
2019-03-01T04:11:48.488Z,4.44
2019-03-01T04:14:15.900Z,4.53
2019-03-01T04:16:43.318Z,4.72
2019-03-01T04:19:10.826Z,4.87
2019-03-01T04:21:38.289Z,4.92
2019-03-01T04:24:05.636Z,5.01
2019-03-01T04:26:33.229Z,4.90
2019-03-01T04:29:00.748Z,4.83
2019-03-01T04:31:28.161Z,4.77
2019-03-01T04:33:55.585Z,4.43
2019-03-01T04:36:23.058Z,4.54
2019-03-01T04:38:50.535Z,4.66
2019-03-01T04:41:18.001Z,4.82
2019-03-01T04:43:45.445Z,4.95
2019-03-01T04:46:12.972Z,5.05
2019-03-01T04:48:40.412Z,5.21
2019-03-01T04:51:09.763Z,5.26
2019-03-01T04:53:37.230Z,5.38
2019-03-01T04:56:04.731Z,5.42
2019-03-01T04:58:32.204Z,5.43
2019-03-01T05:00:59.686Z,5.57
2019-03-01T05:03:27.197Z,6.00
2019-03-01T05:05:54.624Z,6.13
2019-03-01T05:08:22.010Z,6.25
2019-03-01T05:10:49.556Z,6.24
2019-03-01T05:13:17.029Z,6.08
2019-03-01T05:15:44.385Z,6.34
2019-03-01T05:18:11.810Z,6.41
2019-03-01T05:20:39.274Z,6.49
2019-03-01T05:23:06.678Z,6.45
2019-03-01T05:25:34.090Z,6.33
2019-03-01T05:28:01.540Z,5.97
2019-03-01T05:30:28.972Z,5.67
2019-03-01T05:32:56.468Z,5.57
2019-03-01T05:35:23.889Z,5.18
2019-03-01T05:37:51.253Z,5.13
2019-03-01T05:40:18.705Z,5.05
2019-03-01T05:42:46.121Z,5.09
2019-03-01T05:45:16.108Z,5.15
2019-03-01T05:47:43.551Z,5.15
2019-03-01T05:50:11.567Z,5.20
2019-03-01T05:52:38.990Z,5.24
2019-03-01T05:55:06.639Z,5.30
2019-03-01T05:57:34.742Z,5.33
2019-03-01T06:00:02.910Z,5.48
2019-03-01T06:03:08.478Z,5.60
2019-03-01T06:05:40.179Z,5.71
2019-03-01T06:08:58.830Z,5.73
2019-03-01T06:11:44.335Z,5.90
2019-03-01T06:14:25.313Z,6.06
2019-03-01T06:17:33.138Z,6.09
2019-03-01T06:20:38.129Z,6.24
2019-03-01T06:23:48.743Z,6.38
2019-03-01T06:27:10.094Z,6.83
2019-03-01T06:30:17.818Z,7.13
2019-03-01T06:33:10.502Z,7.59
2019-03-01T06:35:57.837Z,7.67
2019-03-01T06:39:20.306Z,7.81
2019-03-01T06:42:16.601Z,8.07
2019-03-01T06:45:41.432Z,8.54
2019-03-01T06:48:12.361Z,9.07
2019-03-01T06:51:02.387Z,9.37
2019-03-01T06:53:29.841Z,9.61
2019-03-01T06:56:00.220Z,9.83
2019-03-01T06:58:32.777Z,9.94
2019-03-01T07:01:07.950Z,10.00
2019-03-01T07:03:35.406Z,10.26
2019-03-01T07:06:03.527Z,10.75
2019-03-01T07:08:31.326Z,11.13
2019-03-01T07:10:58.834Z,11.58
2019-03-01T07:13:26.280Z,12.10
2019-03-01T07:15:53.699Z,12.56
2019-03-01T07:18:21.070Z,12.70
2019-03-01T07:20:48.490Z,12.89
2019-03-01T07:23:15.959Z,13.17
2019-03-01T07:25:43.347Z,13.40
2019-03-01T07:28:10.794Z,13.51
2019-03-01T07:30:38.249Z,13.61
2019-03-01T07:33:05.688Z,13.88
2019-03-01T07:35:33.109Z,14.07
2019-03-01T07:38:00.731Z,13.99
2019-03-01T07:40:28.176Z,14.04
2019-03-01T07:42:55.618Z,14.24
2019-03-01T07:45:23.396Z,14.30
2019-03-01T07:47:51.185Z,14.39
2019-03-01T07:50:18.954Z,14.48
2019-03-01T07:52:46.382Z,14.56
2019-03-01T07:55:13.856Z,14.67
2019-03-01T07:57:41.379Z,14.50
2019-03-01T08:00:14.213Z,14.73
2019-03-01T08:02:41.007Z,14.63
2019-03-01T08:05:10.003Z,14.22
2019-03-01T08:07:37.521Z,14.29
2019-03-01T08:10:06.764Z,14.52
2019-03-01T08:12:34.182Z,14.74
2019-03-01T08:15:04.004Z,14.94
2019-03-01T08:17:31.599Z,14.87
2019-03-01T08:19:59.968Z,14.86
2019-03-01T08:22:27.442Z,15.05
2019-03-01T08:24:54.913Z,15.19
2019-03-01T08:27:22.360Z,15.30
2019-03-01T08:29:49.867Z,15.34
2019-03-01T08:32:17.327Z,15.36
2019-03-01T08:34:44.703Z,15.12
2019-03-01T08:37:14.516Z,15.14
2019-03-01T08:39:43.537Z,14.99
2019-03-01T08:42:10.958Z,14.86
2019-03-01T08:44:38.404Z,14.98
2019-03-01T08:47:05.924Z,14.94
2019-03-01T08:49:33.350Z,14.84
2019-03-01T08:52:01.437Z,14.87
2019-03-01T08:54:31.122Z,14.93
2019-03-01T08:56:59.307Z,15.11
2019-03-01T08:59:27.035Z,14.93
2019-03-01T09:01:54.716Z,14.88
2019-03-01T09:04:22.113Z,14.88
2019-03-01T09:06:49.550Z,15.15
2019-03-01T09:09:17.553Z,15.30
2019-03-01T09:11:46.305Z,15.14
2019-03-01T09:14:13.735Z,15.16
2019-03-01T09:16:41.243Z,15.22
2019-03-01T09:19:08.739Z,15.59
2019-03-01T09:21:36.128Z,15.86
2019-03-01T09:24:03.855Z,15.70
2019-03-01T09:26:31.316Z,15.52
2019-03-01T09:28:58.777Z,15.40
2019-03-01T09:31:26.169Z,15.71
2019-03-01T09:33:56.371Z,15.86
2019-03-01T09:36:35.829Z,15.45
2019-03-01T09:39:05.836Z,15.47
2019-03-01T09:41:36.630Z,15.59
2019-03-01T09:44:03.788Z,15.62
2019-03-01T09:46:31.393Z,15.86
2019-03-01T09:48:58.782Z,16.12
2019-03-01T09:51:26.243Z,15.88
2019-03-01T09:53:53.703Z,15.73
2019-03-01T09:56:21.192Z,16.13
2019-03-01T09:58:48.956Z,15.93
2019-03-01T10:01:17.757Z,16.18
2019-03-01T10:03:45.798Z,16.56
2019-03-01T10:06:13.348Z,16.43
2019-03-01T10:08:40.781Z,16.53
2019-03-01T10:11:08.206Z,16.63
2019-03-01T10:16:03.366Z,16.28
2019-03-01T10:18:30.906Z,16.28
2019-03-01T10:20:58.357Z,16.26
2019-03-01T10:23:25.811Z,16.48
2019-03-01T10:25:53.475Z,16.62
2019-03-01T10:28:20.884Z,16.59
2019-03-01T10:30:48.388Z,16.70
2019-03-01T10:33:15.847Z,16.61
2019-03-01T10:35:43.306Z,16.89
2019-03-01T10:38:10.775Z,17.19
2019-03-01T10:40:38.313Z,17.19
2019-03-01T10:43:05.887Z,17.12
2019-03-01T10:45:33.329Z,16.93
2019-03-01T10:48:00.903Z,16.80
2019-03-01T10:50:28.290Z,16.67
2019-03-01T10:52:55.735Z,17.02
2019-03-01T10:55:23.329Z,17.06
2019-03-01T10:57:50.834Z,17.24
2019-03-01T11:00:20.357Z,17.11
2019-03-01T11:02:47.911Z,17.13
2019-03-01T11:05:15.299Z,17.16
2019-03-01T11:07:42.894Z,17.09
2019-03-01T11:10:12.976Z,17.25
2019-03-01T11:12:40.362Z,17.43
2019-03-01T11:15:09.490Z,17.44
2019-03-01T11:17:36.927Z,17.58
2019-03-01T11:20:05.215Z,17.77
2019-03-01T11:22:32.691Z,17.44
2019-03-01T11:25:00.259Z,17.58
2019-03-01T11:27:27.684Z,17.59
2019-03-01T11:29:55.151Z,17.92
2019-03-01T11:32:22.651Z,17.68
2019-03-01T11:34:50.112Z,17.56
2019-03-01T11:37:17.731Z,17.40
2019-03-01T11:39:45.177Z,17.50
2019-03-01T11:42:12.549Z,17.25
2019-03-01T11:44:40.154Z,17.48
2019-03-01T11:47:07.786Z,17.63
2019-03-01T11:49:35.228Z,17.76
2019-03-01T11:52:02.677Z,17.48
2019-03-01T11:54:30.168Z,17.67
2019-03-01T11:56:57.570Z,17.76
2019-03-01T11:59:25.685Z,17.48
2019-03-01T12:01:53.119Z,17.50
2019-03-01T12:04:20.608Z,17.33
2019-03-01T12:06:48.119Z,17.27
2019-03-01T12:09:15.794Z,17.05
2019-03-01T12:11:43.219Z,17.18
2019-03-01T12:14:10.651Z,17.44
2019-03-01T12:16:38.081Z,17.57
2019-03-01T12:19:05.564Z,17.72
2019-03-01T12:21:33.050Z,17.60
2019-03-01T12:24:00.593Z,17.34
2019-03-01T12:26:28.103Z,17.18
2019-03-01T12:28:55.544Z,17.50
2019-03-01T12:31:22.984Z,17.50
2019-03-01T12:33:50.517Z,17.67
2019-03-01T12:36:17.891Z,17.48
2019-03-01T12:38:45.325Z,17.40
2019-03-01T12:41:12.771Z,17.63
2019-03-01T12:43:40.222Z,17.48
2019-03-01T12:46:08.038Z,17.60
2019-03-01T12:48:35.563Z,17.70
2019-03-01T12:51:03.061Z,17.86
2019-03-01T12:53:30.423Z,18.00
2019-03-01T12:55:57.886Z,17.68
2019-03-01T12:58:25.462Z,17.48
2019-03-01T13:00:52.941Z,17.39
2019-03-01T13:03:20.338Z,17.80
2019-03-01T13:05:49.905Z,17.96
2019-03-01T13:08:17.264Z,18.16
2019-03-01T13:10:46.150Z,18.24
2019-03-01T13:13:13.614Z,18.11
2019-03-01T13:15:41.178Z,17.96
2019-03-01T13:18:13.626Z,18.18
2019-03-01T13:20:38.185Z,18.14
2019-03-01T13:23:06.255Z,18.02
2019-03-01T13:25:33.909Z,18.02
2019-03-01T13:28:01.477Z,18.05
2019-03-01T13:30:28.946Z,18.11
2019-03-01T13:32:58.870Z,18.01
2019-03-01T13:35:27.273Z,18.10
2019-03-01T13:37:56.564Z,17.98
2019-03-01T13:40:25.365Z,18.15
2019-03-01T13:42:53.119Z,17.86
2019-03-01T13:45:20.597Z,17.77
2019-03-01T13:47:48.190Z,17.67
2019-03-01T13:50:16.508Z,17.76
2019-03-01T13:52:43.918Z,17.89
2019-03-01T13:55:11.668Z,18.16
2019-03-01T13:57:39.104Z,17.84
2019-03-01T14:00:09.207Z,17.94
2019-03-01T14:02:36.626Z,17.64
2019-03-01T14:05:04.765Z,17.73
2019-03-01T14:07:32.438Z,17.89
2019-03-01T14:10:00.760Z,17.68
2019-03-01T14:12:29.168Z,17.53
2019-03-01T14:14:59.302Z,17.44
2019-03-01T14:17:25.968Z,17.79
2019-03-01T14:19:53.361Z,17.22
2019-03-01T14:22:20.855Z,16.92
2019-03-01T14:24:48.517Z,16.99
2019-03-01T14:27:15.890Z,17.27
2019-03-01T14:29:43.353Z,16.62
2019-03-01T14:32:10.813Z,16.66
2019-03-01T14:34:38.206Z,16.43
2019-03-01T14:37:05.658Z,16.40
2019-03-01T14:39:33.120Z,16.42
2019-03-01T14:42:00.526Z,16.52
2019-03-01T14:44:30.732Z,16.73
2019-03-01T14:46:57.359Z,16.51
2019-03-01T14:49:24.981Z,16.52
2019-03-01T14:51:52.462Z,16.73
2019-03-01T14:54:21.325Z,16.56
2019-03-01T14:56:53.272Z,16.61
2019-03-01T14:59:25.347Z,16.27
2019-03-01T15:02:08.847Z,16.02
2019-03-01T15:04:36.270Z,16.04
2019-03-01T15:07:03.794Z,15.79
2019-03-01T15:09:31.181Z,15.80
2019-03-01T15:11:58.609Z,15.79
2019-03-01T15:14:26.292Z,15.66
2019-03-01T15:16:53.733Z,15.66
2019-03-01T15:19:21.118Z,15.59
2019-03-01T15:21:48.581Z,15.60
2019-03-01T15:24:16.034Z,15.55
2019-03-01T15:26:46.229Z,15.61
2019-03-01T15:29:12.815Z,15.51
2019-03-01T15:31:40.347Z,15.32
2019-03-01T15:34:07.769Z,15.24
2019-03-01T15:36:35.162Z,15.28
2019-03-01T15:39:04.547Z,15.23
2019-03-01T15:41:32.025Z,15.14
2019-03-01T15:43:59.509Z,15.16
2019-03-01T15:46:26.979Z,15.17
2019-03-01T15:48:54.474Z,15.19
2019-03-01T15:51:22.197Z,15.02
2019-03-01T15:53:49.662Z,15.00
2019-03-01T15:56:17.172Z,14.95
2019-03-01T15:58:46.465Z,15.07
2019-03-01T16:01:13.947Z,15.03
2019-03-01T16:03:41.771Z,15.06
2019-03-01T16:06:10.487Z,14.96
2019-03-01T16:08:38.168Z,14.81
2019-03-01T16:11:05.615Z,14.74
2019-03-01T16:13:33.139Z,14.71
2019-03-01T16:16:00.529Z,14.62
2019-03-01T16:18:27.976Z,14.53
2019-03-01T16:20:55.420Z,14.57
2019-03-01T16:23:22.828Z,14.52
2019-03-01T16:25:53.045Z,14.41
2019-03-01T16:28:19.721Z,14.36
2019-03-01T16:30:49.634Z,14.35
2019-03-01T16:33:16.722Z,14.24
2019-03-01T16:35:44.185Z,14.31
2019-03-01T16:38:11.665Z,14.26
2019-03-01T16:40:39.082Z,14.23
2019-03-01T16:43:06.580Z,14.11
2019-03-01T16:45:36.156Z,14.08
2019-03-01T16:48:03.397Z,13.99
2019-03-01T16:50:30.869Z,14.03
2019-03-01T16:53:04.202Z,14.04
2019-03-01T16:55:28.834Z,13.92
2019-03-01T16:58:06.269Z,13.85
2019-03-01T17:00:26.578Z,13.79
2019-03-01T17:02:54.343Z,13.91
2019-03-01T17:05:21.816Z,13.90
2019-03-01T17:07:49.332Z,13.84
2019-03-01T17:10:16.989Z,13.95
2019-03-01T17:12:44.473Z,13.89
2019-03-01T17:15:16.289Z,13.82
2019-03-01T17:17:44.406Z,13.97
2019-03-01T17:20:12.072Z,14.11
2019-03-01T17:22:39.419Z,13.98
2019-03-01T17:25:07.031Z,13.90
2019-03-01T17:27:36.632Z,13.89
2019-03-01T17:30:04.626Z,13.84
2019-03-01T17:32:34.188Z,13.82
2019-03-01T17:35:04.977Z,13.78
2019-03-01T17:37:32.394Z,13.68
2019-03-01T17:40:00.033Z,13.48
2019-03-01T17:42:27.511Z,13.60
2019-03-01T17:44:54.937Z,13.63
2019-03-01T17:47:22.505Z,13.48
2019-03-01T17:49:49.912Z,13.38
2019-03-01T17:52:17.376Z,13.18
2019-03-01T17:54:44.966Z,12.94
2019-03-01T17:57:12.423Z,12.94
2019-03-01T17:59:39.970Z,12.85
2019-03-01T18:02:07.411Z,12.77
2019-03-01T18:04:36.982Z,12.62
2019-03-01T18:07:04.236Z,12.47
2019-03-01T18:09:31.665Z,12.37
2019-03-01T18:11:59.123Z,12.01
2019-03-01T18:14:26.592Z,12.25
2019-03-01T18:16:57.091Z,12.19
2019-03-01T18:19:23.722Z,12.14
2019-03-01T18:21:52.697Z,12.21
2019-03-01T18:24:20.192Z,12.18
2019-03-01T18:26:47.552Z,12.25
2019-03-01T18:29:15.033Z,12.27
2019-03-01T18:31:42.502Z,12.23
2019-03-01T18:34:09.967Z,12.29
2019-03-01T18:36:37.431Z,12.26
2019-03-01T18:39:10.114Z,11.97
2019-03-01T18:41:37.502Z,12.16
2019-03-01T18:44:04.928Z,12.35
2019-03-01T18:46:32.353Z,12.28
2019-03-01T18:48:59.816Z,12.30
2019-03-01T18:51:27.188Z,12.34
2019-03-01T18:53:54.662Z,12.45
2019-03-01T18:56:25.032Z,12.43
2019-03-01T18:58:51.740Z,12.51
2019-03-01T19:01:19.644Z,12.46
2019-03-01T19:03:47.087Z,12.41
2019-03-01T19:06:16.228Z,12.32
2019-03-01T19:08:43.954Z,12.26
2019-03-01T19:11:11.409Z,12.37
2019-03-01T19:13:38.843Z,12.43
2019-03-01T19:16:06.291Z,12.41
2019-03-01T19:18:33.757Z,12.41
2019-03-01T19:21:01.168Z,12.44
2019-03-01T19:23:29.409Z,12.61
2019-03-01T19:26:01.764Z,12.63
2019-03-01T19:28:27.706Z,12.72
2019-03-01T19:30:55.291Z,12.60
2019-03-01T19:33:22.897Z,12.65
2019-03-01T19:35:50.273Z,12.61
2019-03-01T19:38:17.735Z,12.57
2019-03-01T19:40:46.967Z,12.48
2019-03-01T19:43:14.494Z,12.48
2019-03-01T19:45:41.913Z,12.51
2019-03-01T19:48:09.433Z,12.34
2019-03-01T19:50:36.897Z,12.28
2019-03-01T19:53:04.332Z,12.14
2019-03-01T19:55:31.864Z,12.24
2019-03-01T19:57:59.450Z,12.35
2019-03-01T20:00:27.191Z,12.08
2019-03-01T20:02:55.053Z,11.84
2019-03-01T20:05:23.871Z,11.48
2019-03-01T20:07:51.781Z,11.08
2019-03-01T20:10:20.820Z,10.70
2019-03-01T20:12:48.253Z,10.48
2019-03-01T20:15:17.846Z,10.30
2019-03-01T20:17:45.277Z,10.09
2019-03-01T20:20:13.876Z,10.18
2019-03-01T20:22:41.441Z,10.22
2019-03-01T20:25:12.722Z,10.17
2019-03-01T20:27:40.255Z,10.17
2019-03-01T20:30:14.029Z,10.12
2019-03-01T20:32:41.515Z,9.99
2019-03-01T20:35:12.710Z,9.82
2019-03-01T20:37:40.108Z,9.62
2019-03-01T20:40:09.754Z,9.48
2019-03-01T20:42:37.511Z,9.48
2019-03-01T20:45:09.114Z,9.40
2019-03-01T20:47:36.573Z,9.30
2019-03-01T20:50:04.348Z,9.18
2019-03-01T20:52:34.808Z,9.14
2019-03-01T20:55:01.766Z,9.01
2019-03-01T20:57:29.361Z,8.80
2019-03-01T20:59:56.903Z,8.71
2019-03-01T21:02:24.375Z,8.57
2019-03-01T21:04:53.565Z,8.43
2019-03-01T21:07:21.131Z,8.37
2019-03-01T21:09:48.580Z,8.34
2019-03-01T21:12:15.962Z,8.34
2019-03-01T21:14:43.412Z,8.25
2019-03-01T21:17:10.871Z,8.33
2019-03-01T21:19:40.846Z,8.35
2019-03-01T21:22:07.807Z,8.32
2019-03-01T21:24:35.188Z,8.32
2019-03-01T21:27:02.684Z,8.32
2019-03-01T21:29:30.120Z,8.27
2019-03-01T21:31:57.577Z,8.37
2019-03-01T21:34:25.002Z,8.34
2019-03-01T21:36:52.353Z,8.21
2019-03-01T21:39:20.648Z,8.16
2019-03-01T21:41:51.288Z,8.08
2019-03-01T21:44:18.877Z,8.01
2019-03-01T21:46:46.325Z,8.04
2019-03-01T21:49:13.788Z,8.06
2019-03-01T21:51:41.214Z,8.03
2019-03-01T21:54:08.702Z,8.03
2019-03-01T21:56:36.182Z,7.97
2019-03-01T21:59:05.508Z,7.94
2019-03-01T22:01:32.985Z,8.04
2019-03-01T22:04:02.501Z,8.08
2019-03-01T22:06:29.972Z,8.03
2019-03-01T22:08:57.451Z,8.03
2019-03-01T22:11:24.948Z,7.97
2019-03-01T22:13:52.407Z,7.96
2019-03-01T22:16:19.901Z,8.04
2019-03-01T22:18:47.355Z,8.22
2019-03-01T22:21:16.926Z,8.13
2019-03-01T22:23:44.157Z,7.75
2019-03-01T22:26:13.622Z,7.75
2019-03-01T22:28:40.983Z,7.98
2019-03-01T22:31:08.459Z,7.96
2019-03-01T22:33:35.931Z,8.04
2019-03-01T22:36:03.303Z,8.17
2019-03-01T22:38:30.780Z,8.20
2019-03-01T22:41:00.577Z,8.17
2019-03-01T22:43:27.551Z,8.28
2019-03-01T22:45:54.979Z,8.25
2019-03-01T22:48:22.424Z,8.20
2019-03-01T22:50:49.888Z,8.11
2019-03-01T22:53:17.274Z,8.00
2019-03-01T22:55:44.731Z,7.97
2019-03-01T22:58:12.187Z,8.23
2019-03-01T23:01:20.887Z,8.31
2019-03-01T23:04:03.196Z,8.17
2019-03-01T23:06:30.658Z,8.00
2019-03-01T23:08:58.113Z,8.08
2019-03-01T23:11:28.807Z,8.04
2019-03-01T23:13:55.718Z,7.93
2019-03-01T23:16:24.087Z,7.74
2019-03-01T23:18:56.601Z,7.50
2019-03-01T23:21:20.863Z,7.20
2019-03-01T23:23:48.315Z,7.27
2019-03-01T23:26:18.664Z,7.22
2019-03-01T23:28:45.067Z,7.13
2019-03-01T23:31:12.518Z,7.26
2019-03-01T23:33:39.956Z,7.16
2019-03-01T23:36:07.377Z,6.95
2019-03-01T23:38:34.735Z,6.94
2019-03-01T23:41:02.216Z,6.79
2019-03-01T23:43:30.794Z,6.71
2019-03-01T23:45:59.029Z,6.63
2019-03-01T23:48:26.421Z,6.53
2019-03-01T23:50:53.900Z,6.34
2019-03-01T23:53:21.335Z,6.27
2019-03-01T23:55:51.004Z,6.27
2019-03-01T23:58:18.128Z,6.41
